sensor_id;sensor_type;location;lat;lon;timestamp;temperature;humidity
68691;DHT22;55675;49.588;8.640;2023-02-13T00:01:00;5.40;93.30
68691;DHT22;55675;49.588;8.640;2023-02-13T00:03:25;5.40;93.30
68691;DHT22;55675;49.588;8.640;2023-02-13T00:05:50;5.40;93.30
68691;DHT22;55675;49.588;8.640;2023-02-13T00:08:16;5.40;93.30
68691;DHT22;55675;49.588;8.640;2023-02-13T00:10:41;5.30;93.20
68691;DHT22;55675;49.588;8.640;2023-02-13T00:13:07;5.30;93.20
68691;DHT22;55675;49.588;8.640;2023-02-13T00:15:32;5.20;93.10
68691;DHT22;55675;49.588;8.640;2023-02-13T00:17:58;5.20;93.10
68691;DHT22;55675;49.588;8.640;2023-02-13T00:20:23;5.10;93.20
68691;DHT22;55675;49.588;8.640;2023-02-13T00:22:49;5.10;93.10
68691;DHT22;55675;49.588;8.640;2023-02-13T00:25:14;5.00;93.00
68691;DHT22;55675;49.588;8.640;2023-02-13T00:27:40;4.90;93.00
68691;DHT22;55675;49.588;8.640;2023-02-13T00:30:05;4.80;93.10
68691;DHT22;55675;49.588;8.640;2023-02-13T00:32:31;4.80;93.10
68691;DHT22;55675;49.588;8.640;2023-02-13T00:34:56;4.70;93.10
68691;DHT22;55675;49.588;8.640;2023-02-13T00:37:22;4.70;93.20
68691;DHT22;55675;49.588;8.640;2023-02-13T00:39:48;4.70;93.20
68691;DHT22;55675;49.588;8.640;2023-02-13T00:42:13;4.70;93.20
68691;DHT22;55675;49.588;8.640;2023-02-13T00:44:39;4.70;93.20
68691;DHT22;55675;49.588;8.640;2023-02-13T00:47:04;4.70;93.20
68691;DHT22;55675;49.588;8.640;2023-02-13T00:49:30;4.70;93.30
68691;DHT22;55675;49.588;8.640;2023-02-13T00:51:55;4.70;93.30
68691;DHT22;55675;49.588;8.640;2023-02-13T00:54:21;4.70;93.30
68691;DHT22;55675;49.588;8.640;2023-02-13T00:56:46;4.70;93.40
68691;DHT22;55675;49.588;8.640;2023-02-13T00:59:11;4.70;93.40
68691;DHT22;55675;49.588;8.640;2023-02-13T01:01:37;4.80;93.50
68691;DHT22;55675;49.588;8.640;2023-02-13T01:04:02;4.80;93.60
68691;DHT22;55675;49.588;8.640;2023-02-13T01:06:28;4.80;93.70
68691;DHT22;55675;49.588;8.640;2023-02-13T01:08:53;4.90;93.70
68691;DHT22;55675;49.588;8.640;2023-02-13T01:11:19;4.90;93.70
68691;DHT22;55675;49.588;8.640;2023-02-13T01:13:44;4.90;93.70
68691;DHT22;55675;49.588;8.640;2023-02-13T01:16:10;4.90;93.70
68691;DHT22;55675;49.588;8.640;2023-02-13T01:18:36;5.00;93.90
68691;DHT22;55675;49.588;8.640;2023-02-13T01:21:03;5.00;93.90
68691;DHT22;55675;49.588;8.640;2023-02-13T01:23:31;5.00;93.90
68691;DHT22;55675;49.588;8.640;2023-02-13T01:25:57;5.00;93.90
68691;DHT22;55675;49.588;8.640;2023-02-13T01:28:22;5.00;94.00
68691;DHT22;55675;49.588;8.640;2023-02-13T01:30:54;5.00;94.00
68691;DHT22;55675;49.588;8.640;2023-02-13T01:33:21;5.00;94.00
68691;DHT22;55675;49.588;8.640;2023-02-13T01:35:46;5.00;94.00
68691;DHT22;55675;49.588;8.640;2023-02-13T01:38:12;5.00;94.00
68691;DHT22;55675;49.588;8.640;2023-02-13T01:40:43;5.10;94.10
68691;DHT22;55675;49.588;8.640;2023-02-13T01:43:08;5.10;94.00
68691;DHT22;55675;49.588;8.640;2023-02-13T01:45:35;5.10;94.00
68691;DHT22;55675;49.588;8.640;2023-02-13T01:48:10;5.10;94.10
68691;DHT22;55675;49.588;8.640;2023-02-13T01:50:38;5.10;94.10
68691;DHT22;55675;49.588;8.640;2023-02-13T01:53:06;5.00;94.00
68691;DHT22;55675;49.588;8.640;2023-02-13T01:55:34;5.00;94.00
68691;DHT22;55675;49.588;8.640;2023-02-13T01:58:03;5.00;94.00
68691;DHT22;55675;49.588;8.640;2023-02-13T02:00:30;5.00;94.10
68691;DHT22;55675;49.588;8.640;2023-02-13T02:03:01;5.00;94.10
68691;DHT22;55675;49.588;8.640;2023-02-13T02:05:27;5.00;94.20
68691;DHT22;55675;49.588;8.640;2023-02-13T02:07:54;4.90;94.10
68691;DHT22;55675;49.588;8.640;2023-02-13T02:10:21;5.00;94.10
68691;DHT22;55675;49.588;8.640;2023-02-13T02:13:29;4.90;94.10
68691;DHT22;55675;49.588;8.640;2023-02-13T02:15:35;4.90;94.10
68691;DHT22;55675;49.588;8.640;2023-02-13T02:18:01;4.90;94.00
68691;DHT22;55675;49.588;8.640;2023-02-13T02:23:22;4.80;94.00
68691;DHT22;55675;49.588;8.640;2023-02-13T02:28:43;4.70;94.00
68691;DHT22;55675;49.588;8.640;2023-02-13T02:31:18;4.70;94.00
68691;DHT22;55675;49.588;8.640;2023-02-13T02:33:56;4.70;94.00
68691;DHT22;55675;49.588;8.640;2023-02-13T02:36:44;4.60;94.10
68691;DHT22;55675;49.588;8.640;2023-02-13T02:39:13;4.70;94.10
68691;DHT22;55675;49.588;8.640;2023-02-13T02:47:08;4.70;94.20
68691;DHT22;55675;49.588;8.640;2023-02-13T02:52:54;4.80;94.30
68691;DHT22;55675;49.588;8.640;2023-02-13T02:57:51;4.80;94.30
68691;DHT22;55675;49.588;8.640;2023-02-13T03:00:39;4.80;94.30
68691;DHT22;55675;49.588;8.640;2023-02-13T03:03:24;4.80;94.30
68691;DHT22;55675;49.588;8.640;2023-02-13T03:06:16;4.80;94.30
68691;DHT22;55675;49.588;8.640;2023-02-13T03:08:45;4.80;94.40
68691;DHT22;55675;49.588;8.640;2023-02-13T03:11:30;4.80;94.40
68691;DHT22;55675;49.588;8.640;2023-02-13T03:14:16;4.80;94.40
68691;DHT22;55675;49.588;8.640;2023-02-13T03:16:42;4.90;94.50
68691;DHT22;55675;49.588;8.640;2023-02-13T03:32:46;5.00;94.80
68691;DHT22;55675;49.588;8.640;2023-02-13T03:35:32;5.00;94.80
68691;DHT22;55675;49.588;8.640;2023-02-13T03:38:29;5.00;94.70
68691;DHT22;55675;49.588;8.640;2023-02-13T03:40:57;5.00;94.70
68691;DHT22;55675;49.588;8.640;2023-02-13T03:46:27;4.90;94.60
68691;DHT22;55675;49.588;8.640;2023-02-13T03:48:55;4.80;94.30
68691;DHT22;55675;49.588;8.640;2023-02-13T03:51:46;4.70;94.40
68691;DHT22;55675;49.588;8.640;2023-02-13T03:54:24;4.60;94.30
68691;DHT22;55675;49.588;8.640;2023-02-13T03:57:11;4.60;94.20
68691;DHT22;55675;49.588;8.640;2023-02-13T03:59:58;4.50;94.30
68691;DHT22;55675;49.588;8.640;2023-02-13T04:02:27;4.50;94.20
68691;DHT22;55675;49.588;8.640;2023-02-13T04:04:57;4.40;94.10
68691;DHT22;55675;49.588;8.640;2023-02-13T04:07:24;4.40;94.10
68691;DHT22;55675;49.588;8.640;2023-02-13T04:10:03;4.30;94.10
68691;DHT22;55675;49.588;8.640;2023-02-13T04:12:54;4.20;94.30
68691;DHT22;55675;49.588;8.640;2023-02-13T04:15:52;4.20;94.00
68691;DHT22;55675;49.588;8.640;2023-02-13T04:18:10;4.10;94.10
68691;DHT22;55675;49.588;8.640;2023-02-13T04:20:37;4.00;94.30
68691;DHT22;55675;49.588;8.640;2023-02-13T04:23:06;3.90;94.30
68691;DHT22;55675;49.588;8.640;2023-02-13T04:25:32;3.90;94.40
68691;DHT22;55675;49.588;8.640;2023-02-13T04:27:58;4.00;94.40
68691;DHT22;55675;49.588;8.640;2023-02-13T04:30:23;3.90;94.40
68691;DHT22;55675;49.588;8.640;2023-02-13T04:32:48;3.90;94.40
68691;DHT22;55675;49.588;8.640;2023-02-13T04:35:14;3.90;94.40
68691;DHT22;55675;49.588;8.640;2023-02-13T04:37:39;3.80;94.40
68691;DHT22;55675;49.588;8.640;2023-02-13T04:40:05;3.90;94.40
68691;DHT22;55675;49.588;8.640;2023-02-13T04:42:30;3.80;94.40
68691;DHT22;55675;49.588;8.640;2023-02-13T04:44:56;3.80;94.40
68691;DHT22;55675;49.588;8.640;2023-02-13T04:47:21;3.80;94.30
68691;DHT22;55675;49.588;8.640;2023-02-13T04:49:47;3.70;94.20
68691;DHT22;55675;49.588;8.640;2023-02-13T04:52:12;3.70;94.20
68691;DHT22;55675;49.588;8.640;2023-02-13T04:54:39;3.70;94.30
68691;DHT22;55675;49.588;8.640;2023-02-13T04:57:04;3.70;94.30
68691;DHT22;55675;49.588;8.640;2023-02-13T04:59:30;3.60;94.30
68691;DHT22;55675;49.588;8.640;2023-02-13T05:01:55;3.60;94.30
68691;DHT22;55675;49.588;8.640;2023-02-13T05:04:23;3.60;94.30
68691;DHT22;55675;49.588;8.640;2023-02-13T05:06:49;3.60;94.30
68691;DHT22;55675;49.588;8.640;2023-02-13T05:09:15;3.60;94.40
68691;DHT22;55675;49.588;8.640;2023-02-13T05:11:40;3.60;94.40
68691;DHT22;55675;49.588;8.640;2023-02-13T05:14:06;3.60;94.70
68691;DHT22;55675;49.588;8.640;2023-02-13T05:16:32;3.60;94.90
68691;DHT22;55675;49.588;8.640;2023-02-13T05:18:57;3.60;94.90
68691;DHT22;55675;49.588;8.640;2023-02-13T05:21:23;3.60;94.90
68691;DHT22;55675;49.588;8.640;2023-02-13T05:24:06;3.60;95.00
68691;DHT22;55675;49.588;8.640;2023-02-13T05:26:32;3.60;94.90
68691;DHT22;55675;49.588;8.640;2023-02-13T05:28:57;3.60;95.00
68691;DHT22;55675;49.588;8.640;2023-02-13T05:31:41;3.50;95.00
68691;DHT22;55675;49.588;8.640;2023-02-13T05:34:07;3.40;94.90
68691;DHT22;55675;49.588;8.640;2023-02-13T05:36:32;3.40;95.00
68691;DHT22;55675;49.588;8.640;2023-02-13T05:38:58;3.30;95.00
68691;DHT22;55675;49.588;8.640;2023-02-13T05:41:23;3.30;95.10
68691;DHT22;55675;49.588;8.640;2023-02-13T05:43:49;3.30;95.00
68691;DHT22;55675;49.588;8.640;2023-02-13T05:46:14;3.30;95.10
68691;DHT22;55675;49.588;8.640;2023-02-13T05:48:40;3.30;95.00
68691;DHT22;55675;49.588;8.640;2023-02-13T05:51:05;3.20;95.00
68691;DHT22;55675;49.588;8.640;2023-02-13T05:53:31;3.20;95.00
68691;DHT22;55675;49.588;8.640;2023-02-13T05:55:59;3.20;95.00
68691;DHT22;55675;49.588;8.640;2023-02-13T05:58:25;3.30;95.00
68691;DHT22;55675;49.588;8.640;2023-02-13T06:00:53;3.20;95.10
68691;DHT22;55675;49.588;8.640;2023-02-13T06:03:19;3.30;95.00
68691;DHT22;55675;49.588;8.640;2023-02-13T06:05:45;3.30;95.00
68691;DHT22;55675;49.588;8.640;2023-02-13T06:08:10;3.20;94.90
68691;DHT22;55675;49.588;8.640;2023-02-13T06:10:35;3.20;94.90
68691;DHT22;55675;49.588;8.640;2023-02-13T06:13:01;3.20;94.90
68691;DHT22;55675;49.588;8.640;2023-02-13T06:15:26;3.20;94.90
68691;DHT22;55675;49.588;8.640;2023-02-13T06:17:52;3.30;95.00
68691;DHT22;55675;49.588;8.640;2023-02-13T06:20:17;3.30;94.90
68691;DHT22;55675;49.588;8.640;2023-02-13T06:22:45;3.20;94.80
68691;DHT22;55675;49.588;8.640;2023-02-13T06:25:11;3.20;94.80
68691;DHT22;55675;49.588;8.640;2023-02-13T06:27:37;3.20;94.80
68691;DHT22;55675;49.588;8.640;2023-02-13T06:30:03;3.20;94.90
68691;DHT22;55675;49.588;8.640;2023-02-13T06:32:28;3.10;94.80
68691;DHT22;55675;49.588;8.640;2023-02-13T06:34:54;3.10;94.90
68691;DHT22;55675;49.588;8.640;2023-02-13T06:37:19;3.10;94.90
68691;DHT22;55675;49.588;8.640;2023-02-13T06:39:44;3.10;94.90
68691;DHT22;55675;49.588;8.640;2023-02-13T06:42:10;3.10;95.00
68691;DHT22;55675;49.588;8.640;2023-02-13T06:44:35;3.20;95.00
68691;DHT22;55675;49.588;8.640;2023-02-13T06:47:01;3.10;95.00
68691;DHT22;55675;49.588;8.640;2023-02-13T06:49:26;3.20;95.10
68691;DHT22;55675;49.588;8.640;2023-02-13T06:51:52;3.10;95.10
68691;DHT22;55675;49.588;8.640;2023-02-13T06:54:17;3.20;95.20
68691;DHT22;55675;49.588;8.640;2023-02-13T06:56:42;3.20;95.10
68691;DHT22;55675;49.588;8.640;2023-02-13T06:59:08;3.20;95.10
68691;DHT22;55675;49.588;8.640;2023-02-13T07:01:33;3.20;95.10
68691;DHT22;55675;49.588;8.640;2023-02-13T07:03:59;3.20;95.10
68691;DHT22;55675;49.588;8.640;2023-02-13T07:06:24;3.20;95.10
68691;DHT22;55675;49.588;8.640;2023-02-13T07:08:50;3.30;95.10
68691;DHT22;55675;49.588;8.640;2023-02-13T07:11:19;3.30;95.00
68691;DHT22;55675;49.588;8.640;2023-02-13T07:13:45;3.30;95.10
68691;DHT22;55675;49.588;8.640;2023-02-13T07:16:10;3.30;95.10
68691;DHT22;55675;49.588;8.640;2023-02-13T07:18:36;3.40;95.10
68691;DHT22;55675;49.588;8.640;2023-02-13T07:21:01;3.40;95.10
68691;DHT22;55675;49.588;8.640;2023-02-13T07:23:27;3.50;95.10
68691;DHT22;55675;49.588;8.640;2023-02-13T07:25:52;3.50;95.00
68691;DHT22;55675;49.588;8.640;2023-02-13T07:28:18;3.60;95.00
68691;DHT22;55675;49.588;8.640;2023-02-13T07:30:43;3.60;95.00
68691;DHT22;55675;49.588;8.640;2023-02-13T07:33:09;3.70;94.90
68691;DHT22;55675;49.588;8.640;2023-02-13T07:35:34;3.70;94.80
68691;DHT22;55675;49.588;8.640;2023-02-13T07:38:02;3.80;94.90
68691;DHT22;55675;49.588;8.640;2023-02-13T07:40:27;3.80;94.90
68691;DHT22;55675;49.588;8.640;2023-02-13T07:42:53;3.90;95.20
68691;DHT22;55675;49.588;8.640;2023-02-13T07:45:19;4.00;94.80
68691;DHT22;55675;49.588;8.640;2023-02-13T07:47:44;4.10;94.80
68691;DHT22;55675;49.588;8.640;2023-02-13T07:50:10;4.20;94.90
68691;DHT22;55675;49.588;8.640;2023-02-13T07:52:35;4.30;94.90
68691;DHT22;55675;49.588;8.640;2023-02-13T07:55:02;4.30;94.80
68691;DHT22;55675;49.588;8.640;2023-02-13T07:57:27;4.50;94.80
68691;DHT22;55675;49.588;8.640;2023-02-13T07:59:53;4.50;94.70
68691;DHT22;55675;49.588;8.640;2023-02-13T08:02:18;4.60;94.70
68691;DHT22;55675;49.588;8.640;2023-02-13T08:04:44;4.80;94.70
68691;DHT22;55675;49.588;8.640;2023-02-13T08:07:10;4.80;94.60
68691;DHT22;55675;49.588;8.640;2023-02-13T08:09:36;4.90;94.50
68691;DHT22;55675;49.588;8.640;2023-02-13T08:12:20;5.00;94.40
68691;DHT22;55675;49.588;8.640;2023-02-13T08:14:45;5.00;94.40
68691;DHT22;55675;49.588;8.640;2023-02-13T08:17:11;5.10;94.40
68691;DHT22;55675;49.588;8.640;2023-02-13T08:19:36;5.10;94.40
68691;DHT22;55675;49.588;8.640;2023-02-13T08:22:01;5.20;94.40
68691;DHT22;55675;49.588;8.640;2023-02-13T08:24:27;5.30;94.40
68691;DHT22;55675;49.588;8.640;2023-02-13T08:26:52;5.40;94.30
68691;DHT22;55675;49.588;8.640;2023-02-13T08:29:19;5.50;94.40
68691;DHT22;55675;49.588;8.640;2023-02-13T08:31:45;5.60;94.40
68691;DHT22;55675;49.588;8.640;2023-02-13T08:34:10;5.60;94.20
68691;DHT22;55675;49.588;8.640;2023-02-13T08:36:36;5.70;94.20
68691;DHT22;55675;49.588;8.640;2023-02-13T08:39:01;5.80;94.20
68691;DHT22;55675;49.588;8.640;2023-02-13T08:41:27;5.80;94.10
68691;DHT22;55675;49.588;8.640;2023-02-13T08:43:52;5.90;94.00
68691;DHT22;55675;49.588;8.640;2023-02-13T08:46:18;6.00;94.00
68691;DHT22;55675;49.588;8.640;2023-02-13T08:48:44;6.00;93.90
68691;DHT22;55675;49.588;8.640;2023-02-13T08:51:10;6.00;93.80
68691;DHT22;55675;49.588;8.640;2023-02-13T08:53:36;6.10;93.80
68691;DHT22;55675;49.588;8.640;2023-02-13T08:56:02;6.20;93.80
68691;DHT22;55675;49.588;8.640;2023-02-13T08:58:27;6.20;93.70
68691;DHT22;55675;49.588;8.640;2023-02-13T09:00:53;6.30;93.70
68691;DHT22;55675;49.588;8.640;2023-02-13T09:03:18;6.40;93.60
68691;DHT22;55675;49.588;8.640;2023-02-13T09:05:44;6.40;93.60
68691;DHT22;55675;49.588;8.640;2023-02-13T09:08:09;6.50;93.30
68691;DHT22;55675;49.588;8.640;2023-02-13T09:10:38;6.50;93.30
68691;DHT22;55675;49.588;8.640;2023-02-13T09:13:03;6.60;93.40
68691;DHT22;55675;49.588;8.640;2023-02-13T09:15:29;6.70;93.30
68691;DHT22;55675;49.588;8.640;2023-02-13T09:17:55;6.80;93.30
68691;DHT22;55675;49.588;8.640;2023-02-13T09:20:20;6.90;93.30
68691;DHT22;55675;49.588;8.640;2023-02-13T09:22:46;7.00;93.20
68691;DHT22;55675;49.588;8.640;2023-02-13T09:25:11;7.10;93.10
68691;DHT22;55675;49.588;8.640;2023-02-13T09:27:37;7.10;92.80
68691;DHT22;55675;49.588;8.640;2023-02-13T09:30:04;7.20;92.60
68691;DHT22;55675;49.588;8.640;2023-02-13T09:32:30;7.30;92.60
68691;DHT22;55675;49.588;8.640;2023-02-13T09:34:55;7.30;92.60
68691;DHT22;55675;49.588;8.640;2023-02-13T09:37:21;7.40;92.60
68691;DHT22;55675;49.588;8.640;2023-02-13T09:39:47;7.50;92.50
68691;DHT22;55675;49.588;8.640;2023-02-13T09:42:16;7.60;92.50
68691;DHT22;55675;49.588;8.640;2023-02-13T09:44:42;7.60;92.50
68691;DHT22;55675;49.588;8.640;2023-02-13T09:47:12;7.70;92.50
68691;DHT22;55675;49.588;8.640;2023-02-13T09:49:40;7.80;92.40
68691;DHT22;55675;49.588;8.640;2023-02-13T09:52:08;7.90;92.50
68691;DHT22;55675;49.588;8.640;2023-02-13T09:54:34;8.00;92.40
68691;DHT22;55675;49.588;8.640;2023-02-13T09:57:01;8.00;92.20
68691;DHT22;55675;49.588;8.640;2023-02-13T10:01:55;8.20;92.20
68691;DHT22;55675;49.588;8.640;2023-02-13T10:04:31;8.30;92.20
68691;DHT22;55675;49.588;8.640;2023-02-13T10:09:29;8.40;92.00
68691;DHT22;55675;49.588;8.640;2023-02-13T10:14:36;8.60;91.80
68691;DHT22;55675;49.588;8.640;2023-02-13T10:17:05;8.70;91.60
68691;DHT22;55675;49.588;8.640;2023-02-13T10:19:34;8.80;91.50
68691;DHT22;55675;49.588;8.640;2023-02-13T10:22:04;8.90;91.40
68691;DHT22;55675;49.588;8.640;2023-02-13T10:24:32;9.00;91.50
68691;DHT22;55675;49.588;8.640;2023-02-13T10:27:01;9.10;91.30
68691;DHT22;55675;49.588;8.640;2023-02-13T10:32:21;9.30;90.80
68691;DHT22;55675;49.588;8.640;2023-02-13T10:34:49;9.40;90.70
68691;DHT22;55675;49.588;8.640;2023-02-13T10:37:19;9.50;90.70
68691;DHT22;55675;49.588;8.640;2023-02-13T10:39:45;9.60;90.60
68691;DHT22;55675;49.588;8.640;2023-02-13T10:44:46;9.80;90.40
68691;DHT22;55675;49.588;8.640;2023-02-13T10:54:52;10.20;88.90
68691;DHT22;55675;49.588;8.640;2023-02-13T10:57:21;10.20;87.90
68691;DHT22;55675;49.588;8.640;2023-02-13T11:02:24;10.30;88.20
68691;DHT22;55675;49.588;8.640;2023-02-13T11:05:00;10.30;88.00
68691;DHT22;55675;49.588;8.640;2023-02-13T11:07:27;10.40;88.00
68691;DHT22;55675;49.588;8.640;2023-02-13T11:09:54;10.50;88.00
68691;DHT22;55675;49.588;8.640;2023-02-13T11:12:25;10.60;87.40
68691;DHT22;55675;49.588;8.640;2023-02-13T11:14:55;10.70;87.00
68691;DHT22;55675;49.588;8.640;2023-02-13T11:17:20;10.80;87.50
68691;DHT22;55675;49.588;8.640;2023-02-13T11:22:13;11.00;86.00
68691;DHT22;55675;49.588;8.640;2023-02-13T11:24:40;11.10;85.00
68691;DHT22;55675;49.588;8.640;2023-02-13T11:27:07;11.20;85.20
68691;DHT22;55675;49.588;8.640;2023-02-13T11:29:37;11.40;84.10
68691;DHT22;55675;49.588;8.640;2023-02-13T11:34:40;11.60;84.40
68691;DHT22;55675;49.588;8.640;2023-02-13T11:39:37;11.80;83.00
68691;DHT22;55675;49.588;8.640;2023-02-13T11:42:02;11.90;81.80
68691;DHT22;55675;49.588;8.640;2023-02-13T11:44:31;12.00;82.20
68691;DHT22;55675;49.588;8.640;2023-02-13T11:46:58;12.10;81.30
68691;DHT22;55675;49.588;8.640;2023-02-13T11:49:24;12.20;81.30
68691;DHT22;55675;49.588;8.640;2023-02-13T11:51:51;12.20;77.70
68691;DHT22;55675;49.588;8.640;2023-02-13T11:54:24;12.20;77.10
68691;DHT22;55675;49.588;8.640;2023-02-13T11:56:52;12.30;77.00
68691;DHT22;55675;49.588;8.640;2023-02-13T11:59:20;12.30;76.10
68691;DHT22;55675;49.588;8.640;2023-02-13T12:01:46;12.40;76.20
68691;DHT22;55675;49.588;8.640;2023-02-13T12:04:15;12.40;76.60
68691;DHT22;55675;49.588;8.640;2023-02-13T12:06:41;12.40;76.60
68691;DHT22;55675;49.588;8.640;2023-02-13T12:09:21;12.40;76.40
68691;DHT22;55675;49.588;8.640;2023-02-13T12:11:53;12.50;75.80
68691;DHT22;55675;49.588;8.640;2023-02-13T12:14:21;12.50;75.20
68691;DHT22;55675;49.588;8.640;2023-02-13T12:16:48;12.60;75.60
68691;DHT22;55675;49.588;8.640;2023-02-13T12:19:24;12.70;75.40
68691;DHT22;55675;49.588;8.640;2023-02-13T12:40:08;13.70;72.20
68691;DHT22;55675;49.588;8.640;2023-02-13T12:45:26;14.00;71.20
68691;DHT22;55675;49.588;8.640;2023-02-13T12:48:03;14.10;69.70
68691;DHT22;55675;49.588;8.640;2023-02-13T12:53:09;14.20;65.70
68691;DHT22;55675;49.588;8.640;2023-02-13T13:00:53;14.50;66.50
68691;DHT22;55675;49.588;8.640;2023-02-13T13:08:58;14.90;65.50
68691;DHT22;55675;49.588;8.640;2023-02-13T13:11:30;15.00;65.90
68691;DHT22;55675;49.588;8.640;2023-02-13T13:14:17;15.20;62.70
68691;DHT22;55675;49.588;8.640;2023-02-13T13:16:54;15.20;61.10
68691;DHT22;55675;49.588;8.640;2023-02-13T13:24:33;15.40;63.70
68691;DHT22;55675;49.588;8.640;2023-02-13T13:27:03;15.50;62.20
68691;DHT22;55675;49.588;8.640;2023-02-13T13:29:39;15.60;61.60
68691;DHT22;55675;49.588;8.640;2023-02-13T13:32:07;15.70;61.40
68691;DHT22;55675;49.588;8.640;2023-02-13T13:34:33;15.80;62.10
68691;DHT22;55675;49.588;8.640;2023-02-13T13:37:04;16.00;62.70
68691;DHT22;55675;49.588;8.640;2023-02-13T13:42:14;19.60;61.40
68691;DHT22;55675;49.588;8.640;2023-02-13T13:44:46;21.00;57.80
68691;DHT22;55675;49.588;8.640;2023-02-13T13:49:53;22.70;52.60
68691;DHT22;55675;49.588;8.640;2023-02-13T13:52:26;22.90;49.70
68691;DHT22;55675;49.588;8.640;2023-02-13T13:54:53;22.80;43.90
68691;DHT22;55675;49.588;8.640;2023-02-13T13:57:19;22.40;42.60
68691;DHT22;55675;49.588;8.640;2023-02-13T14:04:44;21.50;44.10
68691;DHT22;55675;49.588;8.640;2023-02-13T14:07:24;21.30;43.50
68691;DHT22;55675;49.588;8.640;2023-02-13T14:09:50;20.90;44.10
68691;DHT22;55675;49.588;8.640;2023-02-13T14:12:34;20.80;45.30
68691;DHT22;55675;49.588;8.640;2023-02-13T14:15:00;20.50;45.20
68691;DHT22;55675;49.588;8.640;2023-02-13T14:22:53;18.60;47.10
68691;DHT22;55675;49.588;8.640;2023-02-13T14:25:25;18.10;48.40
68691;DHT22;55675;49.588;8.640;2023-02-13T14:27:58;17.70;49.90
68691;DHT22;55675;49.588;8.640;2023-02-13T14:30:28;17.30;50.20
68691;DHT22;55675;49.588;8.640;2023-02-13T14:32:55;17.00;51.40
68691;DHT22;55675;49.588;8.640;2023-02-13T14:35:25;16.70;52.10
68691;DHT22;55675;49.588;8.640;2023-02-13T14:37:58;16.50;52.90
68691;DHT22;55675;49.588;8.640;2023-02-13T14:40:30;16.30;53.90
68691;DHT22;55675;49.588;8.640;2023-02-13T14:42:56;16.20;54.30
68691;DHT22;55675;49.588;8.640;2023-02-13T14:45:24;16.10;54.90
68691;DHT22;55675;49.588;8.640;2023-02-13T14:47:52;15.90;55.70
68691;DHT22;55675;49.588;8.640;2023-02-13T14:50:28;16.00;56.00
68691;DHT22;55675;49.588;8.640;2023-02-13T14:52:54;16.50;56.10
68691;DHT22;55675;49.588;8.640;2023-02-13T14:55:34;16.70;54.80
68691;DHT22;55675;49.588;8.640;2023-02-13T14:58:03;16.60;54.80
68691;DHT22;55675;49.588;8.640;2023-02-13T15:00:37;16.50;55.00
68691;DHT22;55675;49.588;8.640;2023-02-13T15:03:10;16.50;55.00
68691;DHT22;55675;49.588;8.640;2023-02-13T15:05:37;16.60;55.10
68691;DHT22;55675;49.588;8.640;2023-02-13T15:08:05;17.00;55.20
68691;DHT22;55675;49.588;8.640;2023-02-13T15:10:40;17.50;54.70
68691;DHT22;55675;49.588;8.640;2023-02-13T15:16:06;19.50;52.70
68691;DHT22;55675;49.588;8.640;2023-02-13T15:18:35;21.10;47.40
68691;DHT22;55675;49.588;8.640;2023-02-13T15:21:03;21.80;47.20
68691;DHT22;55675;49.588;8.640;2023-02-13T15:23:31;22.60;46.20
68691;DHT22;55675;49.588;8.640;2023-02-13T15:26:21;23.40;41.50
68691;DHT22;55675;49.588;8.640;2023-02-13T15:31:37;26.00;38.60
68691;DHT22;55675;49.588;8.640;2023-02-13T15:34:02;27.10;36.60
68691;DHT22;55675;49.588;8.640;2023-02-13T15:36:38;27.80;34.20
68691;DHT22;55675;49.588;8.640;2023-02-13T15:39:05;28.30;33.50
68691;DHT22;55675;49.588;8.640;2023-02-13T15:41:36;28.60;32.10
68691;DHT22;55675;49.588;8.640;2023-02-13T15:44:03;28.90;31.40
68691;DHT22;55675;49.588;8.640;2023-02-13T15:46:33;29.10;31.00
68691;DHT22;55675;49.588;8.640;2023-02-13T15:49:04;29.30;30.40
68691;DHT22;55675;49.588;8.640;2023-02-13T15:51:30;29.20;29.50
68691;DHT22;55675;49.588;8.640;2023-02-13T15:54:01;29.10;29.80
68691;DHT22;55675;49.588;8.640;2023-02-13T15:56:27;28.90;29.60
68691;DHT22;55675;49.588;8.640;2023-02-13T15:58:54;28.80;29.70
68691;DHT22;55675;49.588;8.640;2023-02-13T16:01:20;28.50;29.90
68691;DHT22;55675;49.588;8.640;2023-02-13T16:03:50;28.20;30.00
68691;DHT22;55675;49.588;8.640;2023-02-13T16:06:19;28.00;30.40
68691;DHT22;55675;49.588;8.640;2023-02-13T16:08:54;27.60;30.60
68691;DHT22;55675;49.588;8.640;2023-02-13T16:11:35;27.10;31.10
68691;DHT22;55675;49.588;8.640;2023-02-13T16:17:01;25.90;32.80
68691;DHT22;55675;49.588;8.640;2023-02-13T16:19:31;25.10;33.60
68691;DHT22;55675;49.588;8.640;2023-02-13T16:24:47;23.10;36.20
68691;DHT22;55675;49.588;8.640;2023-02-13T16:27:14;22.00;38.10
68691;DHT22;55675;49.588;8.640;2023-02-13T16:29:44;21.10;39.80
68691;DHT22;55675;49.588;8.640;2023-02-13T16:32:11;20.20;40.20
68691;DHT22;55675;49.588;8.640;2023-02-13T16:34:39;19.40;41.00
68691;DHT22;55675;49.588;8.640;2023-02-13T16:37:23;18.50;42.10
68691;DHT22;55675;49.588;8.640;2023-02-13T16:39:48;17.70;43.20
68691;DHT22;55675;49.588;8.640;2023-02-13T16:42:16;17.00;45.30
68691;DHT22;55675;49.588;8.640;2023-02-13T16:44:43;16.40;46.10
68691;DHT22;55675;49.588;8.640;2023-02-13T16:47:11;15.90;47.10
68691;DHT22;55675;49.588;8.640;2023-02-13T16:49:41;15.40;47.70
68691;DHT22;55675;49.588;8.640;2023-02-13T16:54:36;14.50;49.20
68691;DHT22;55675;49.588;8.640;2023-02-13T16:59:35;13.90;50.60
68691;DHT22;55675;49.588;8.640;2023-02-13T17:04:45;13.30;52.00
68691;DHT22;55675;49.588;8.640;2023-02-13T17:07:12;13.10;52.60
68691;DHT22;55675;49.588;8.640;2023-02-13T17:09:38;12.90;53.30
68691;DHT22;55675;49.588;8.640;2023-02-13T17:12:08;12.70;53.70
68691;DHT22;55675;49.588;8.640;2023-02-13T17:14:35;12.50;54.30
68691;DHT22;55675;49.588;8.640;2023-02-13T17:17:00;12.30;54.90
68691;DHT22;55675;49.588;8.640;2023-02-13T17:19:26;12.10;55.50
68691;DHT22;55675;49.588;8.640;2023-02-13T17:21:51;12.00;55.90
68691;DHT22;55675;49.588;8.640;2023-02-13T17:24:19;11.90;56.30
68691;DHT22;55675;49.588;8.640;2023-02-13T17:26:45;11.70;56.70
68691;DHT22;55675;49.588;8.640;2023-02-13T17:29:10;11.50;57.20
68691;DHT22;55675;49.588;8.640;2023-02-13T17:31:36;11.40;57.80
68691;DHT22;55675;49.588;8.640;2023-02-13T17:34:01;11.20;58.40
68691;DHT22;55675;49.588;8.640;2023-02-13T17:36:27;11.10;58.80
68691;DHT22;55675;49.588;8.640;2023-02-13T17:38:52;11.00;59.40
68691;DHT22;55675;49.588;8.640;2023-02-13T17:41:17;10.90;59.80
68691;DHT22;55675;49.588;8.640;2023-02-13T17:43:43;10.70;60.00
68691;DHT22;55675;49.588;8.640;2023-02-13T17:46:09;10.60;61.50
68691;DHT22;55675;49.588;8.640;2023-02-13T17:48:34;10.40;61.90
68691;DHT22;55675;49.588;8.640;2023-02-13T17:51:00;10.10;68.40
68691;DHT22;55675;49.588;8.640;2023-02-13T17:53:26;9.90;66.40
68691;DHT22;55675;49.588;8.640;2023-02-13T17:55:54;9.80;66.40
68691;DHT22;55675;49.588;8.640;2023-02-13T17:58:19;9.70;66.20
68691;DHT22;55675;49.588;8.640;2023-02-13T18:00:45;9.70;66.30
68691;DHT22;55675;49.588;8.640;2023-02-13T18:03:11;9.60;66.80
68691;DHT22;55675;49.588;8.640;2023-02-13T18:05:36;9.50;66.90